Weather reports worldwide

Advertisment
Molina De Aragon, Spain (8232): temperature & dewpoint: 14.10.2020 16:00:00 - 20.10.2020 16:00:00 (CEST)Molina De Aragon, Spain (8232): wind speed: 14.10.2020 16:00:00 - 20.10.2020 16:00:00 (CEST)Molina De Aragon, Spain (8232): wind direction: 14.10.2020 16:00:00 - 20.10.2020 16:00:00 (CEST)Molina De Aragon, Spain (8232): visibility: 14.10.2020 16:00:00 - 20.10.2020 16:00:00 (CEST)Molina De Aragon, Spain (8232): precipitation: 14.10.2020 16:00:00 - 20.10.2020 16:00:00 (CEST)
Date & Time tt [°C] td [°C] ff [km/h] ff [kn] dd vv [km] rr [mm]
20.10.2020 16:00:00 20,2 5,0 21 11 S 20 0,0
20.10.2020 15:00:00 19,4 5,1 21 11 S 20 0,0
20.10.2020 14:00:00 19,3 5,0 13 7 SSE 20 -
20.10.2020 13:00:00 17,4 6,0 21 11 S 18 0,0
20.10.2020 12:00:00 17,3 3,9 15 8 S 20 0,0
20.10.2020 11:00:00 15,3 6,6 4 2 SSW 20 -
20.10.2020 10:00:00 15,8 5,1 11 6 S 19 0,0
20.10.2020 09:00:00 16,2 3,6 11 6 S 20 0,0
20.10.2020 08:00:00 16,6 2,9 11 6 S 20 -
20.10.2020 07:00:00 16,3 3,0 9 5 S 20 0,0
20.10.2020 06:00:00 16,5 3,2 11 6 SSE 20 0,0
20.10.2020 05:00:00 16,1 3,2 15 8 S 20 -
20.10.2020 04:00:00 16,0 3,7 16 9 S 20 0,0
20.10.2020 03:00:00 16,7 3,4 11 6 SSE 20 0,0
20.10.2020 02:00:00 16,8 3,5 13 7 S 20 -
20.10.2020 01:00:00 16,3 3,7 11 6 SSE 20 0,0
20.10.2020 00:00:00 13,7 3,5 8 4 SE 20 0,0
19.10.2020 23:00:00 14,8 3,6 8 4 SE 20 -
19.10.2020 22:00:00 15,2 3,6 9 5 SSE 20 0,0
19.10.2020 21:00:00 12,8 2,0 9 5 ESE 20 0,0
19.10.2020 20:00:00 14,2 2,1 5 3 E 19 -
19.10.2020 19:00:00 18,1 3,2 2 1 SSW 18 0,0
19.10.2020 18:00:00 20,9 3,1 8 4 SSW 20 0,0
19.10.2020 17:00:00 21,6 3,3 11 6 SSW 20 -
19.10.2020 16:00:00 21,2 2,9 11 6 SW 20 0,0
19.10.2020 15:00:00 21,5 2,2 15 8 SSW 10 0,0
19.10.2020 14:00:00 21,1 1,9 13 7 SW 20 -
19.10.2020 13:00:00 18,8 1,7 5 3 WSW 15 0,0
19.10.2020 12:00:00 12,4 2,8 4 2 WSW 13 0,0
19.10.2020 11:00:00 5,9 -0,2 2 1 SSW 20 -
19.10.2020 10:00:00 0,5 -2,4 2 1 SSE 20 0,0
19.10.2020 09:00:00 -2,9 -4,5 2 1 E 20 0,0
19.10.2020 08:00:00 -2,9 -4,8 0 0 N 20 -
19.10.2020 07:00:00 -2,5 -4,5 0 0 N 20 0,0
19.10.2020 06:00:00 -2,0 -4,3 2 1 ENE 20 0,0
19.10.2020 05:00:00 -1,6 -4,1 2 1 NNE 20 -
19.10.2020 04:00:00 -1,2 -3,7 2 1 SE 20 0,0
19.10.2020 03:00:00 -0,7 -3,7 0 0 N 20 0,0
19.10.2020 02:00:00 0,0 -3,6 2 1 ENE 20 -
19.10.2020 01:00:00 1,0 -3,3 2 1 E 20 0,0
19.10.2020 00:00:00 2,3 -2,8 2 1 NNE 20 0,0
18.10.2020 23:00:00 3,7 -2,7 0 0 N 20 -
18.10.2020 22:00:00 5,5 -2,4 2 1 ENE 20 0,0
18.10.2020 21:00:00 7,7 -1,3 2 1 ESE 20 0,0
18.10.2020 20:00:00 11,1 -1,0 2 1 ENE 19 -
18.10.2020 19:00:00 14,9 -0,1 2 1 ESE 19 0,0
18.10.2020 18:00:00 16,8 -0,4 2 1 ESE 18 0,0
18.10.2020 17:00:00 17,5 1,9 0 0 N 17 -
18.10.2020 16:00:00 17,5 -5,1 4 2 SSW 11 0,0
18.10.2020 15:00:00 18,2 -8,1 5 3 W 20 0,0
18.10.2020 14:00:00 17,1 -4,8 4 2 S 20 -
18.10.2020 13:00:00 14,1 2,6 5 3 W 20 0,0
18.10.2020 12:00:00 9,5 2,8 4 2 SSW 20 0,0
18.10.2020 11:00:00 4,6 -0,4 2 1 SW 16 -
18.10.2020 10:00:00 -0,1 -1,7 2 1 S 20 0,0
18.10.2020 09:00:00 -3,4 -4,5 2 1 E 20 0,0
18.10.2020 08:00:00 -3,5 -4,9 2 1 ESE 20 -
18.10.2020 07:00:00 -3,1 -4,5 4 2 ESE 20 0,0
18.10.2020 06:00:00 -2,7 -4,3 2 1 E 20 0,0
18.10.2020 05:00:00 -2,0 -3,7 2 1 E 20 -
18.10.2020 04:00:00 -1,8 -3,5 2 1 ENE 20 0,0
18.10.2020 03:00:00 -1,2 -3,4 2 1 E 20 0,0
18.10.2020 02:00:00 -0,5 -3,0 2 1 E 20 -
18.10.2020 01:00:00 0,5 -2,4 2 1 E 20 0,0
18.10.2020 00:00:00 1,6 -1,8 2 1 E 20 0,0
17.10.2020 23:00:00 2,7 -1,5 2 1 SE 20 -
17.10.2020 22:00:00 4,4 -1,2 2 1 E 20 0,0
17.10.2020 21:00:00 6,7 -0,5 2 1 E 20 0,0
17.10.2020 20:00:00 10,3 -0,2 2 1 W 19 -
17.10.2020 19:00:00 13,9 0,2 8 4 WSW 20 0,0
17.10.2020 18:00:00 15,5 0,9 8 4 W 20 0,0
17.10.2020 17:00:00 15,6 0,6 9 5 W 20 -
17.10.2020 16:00:00 14,6 1,1 9 5 WSW 20 0,0
17.10.2020 15:00:00 14,4 1,0 8 4 WSW 20 0,0
17.10.2020 14:00:00 14,2 0,4 8 4 WNW 20 -
17.10.2020 13:00:00 12,5 0,6 9 5 WSW 20 0,0
17.10.2020 12:00:00 9,2 0,9 5 3 SW 20 0,0
17.10.2020 11:00:00 3,4 -0,8 4 2 S 20 -
17.10.2020 10:00:00 -1,1 -2,4 2 1 S 20 0,0
17.10.2020 09:00:00 -4,1 -5,2 2 1 SE 20 0,0
17.10.2020 08:00:00 -4,3 -5,8 0 0 N 20 -
17.10.2020 07:00:00 -3,7 -5,0 0 0 N 20 0,0
17.10.2020 06:00:00 -3,5 -5,1 2 1 ENE 20 0,0
17.10.2020 05:00:00 -3,1 -4,5 2 1 E 20 -
17.10.2020 04:00:00 -2,5 -4,2 0 0 N 20 0,0
17.10.2020 03:00:00 -2,0 -3,7 2 1 E 20 0,0
17.10.2020 02:00:00 -1,4 -3,1 0 0 N 20 -
17.10.2020 01:00:00 -0,6 -2,5 2 1 ESE 20 0,0
17.10.2020 00:00:00 0,2 -2,2 2 1 SE 20 0,0
16.10.2020 23:00:00 1,3 -1,8 2 1 E 20 -
16.10.2020 22:00:00 3,0 -1,2 2 1 E 20 0,0
16.10.2020 21:00:00 5,0 -0,4 0 0 N 20 0,0
16.10.2020 20:00:00 7,9 0,4 4 2 N 19 -
16.10.2020 19:00:00 11,1 0,8 5 3 N 20 0,0
16.10.2020 18:00:00 12,5 0,6 8 4 WNW 20 0,0
16.10.2020 17:00:00 12,7 1,4 8 4 W 20 -
16.10.2020 16:00:00 11,7 0,4 9 5 NNW 20 0,0
16.10.2020 15:00:00 11,2 1,1 5 3 S 20 0,0
16.10.2020 14:00:00 10,4 -0,2 4 2 SSW 20 -
16.10.2020 13:00:00 10,3 0,9 8 4 WNW 20 0,0
16.10.2020 12:00:00 8,8 0,0 5 3 N 20 0,0
16.10.2020 11:00:00 4,1 0,8 2 1 SSW 20 -
16.10.2020 10:00:00 -0,5 -1,8 2 1 ESE 20 0,0
16.10.2020 09:00:00 -3,6 -4,6 2 1 E 20 0,0
16.10.2020 08:00:00 -3,7 -4,7 2 1 SSE 20 -
16.10.2020 07:00:00 -3,5 -4,6 2 1 E 20 0,0
16.10.2020 06:00:00 -3,2 -4,3 0 0 N 20 0,0
16.10.2020 05:00:00 -2,7 -3,7 2 1 E 20 -
16.10.2020 04:00:00 -2,2 -3,5 2 1 SE 20 0,0
16.10.2020 03:00:00 -1,5 -2,8 2 1 NNE 20 0,0
16.10.2020 02:00:00 -0,5 -1,8 2 1 ESE 20 -
16.10.2020 01:00:00 0,6 -1,2 2 1 E 20 0,0
16.10.2020 00:00:00 2,0 -0,3 2 1 SSW 20 0,0
15.10.2020 23:00:00 3,5 0,7 4 2 W 20 -
15.10.2020 22:00:00 4,4 1,4 4 2 W 20 0,0
15.10.2020 21:00:00 6,1 2,2 5 3 NW 20 0,0
15.10.2020 20:00:00 7,0 2,1 9 5 NW 20 -
15.10.2020 19:00:00 7,8 2,9 5 3 NW 20 0,0
15.10.2020 18:00:00 8,3 3,3 9 5 NW 20 0,2
15.10.2020 17:00:00 8,3 4,1 16 9 N 3,9 -
15.10.2020 16:00:00 9,2 3,8 9 5 W 20 0,0
15.10.2020 15:00:00 10,0 1,9 9 5 WNW 20 0,0
15.10.2020 14:00:00 8,9 2,0 13 7 NNW 20 -
15.10.2020 13:00:00 8,4 2,4 9 5 W 20 0,0
15.10.2020 12:00:00 8,1 2,5 5 3 WSW 20 0,0
15.10.2020 11:00:00 5,6 2,2 5 3 W 20 -
15.10.2020 10:00:00 1,1 -0,2 5 3 ESE 20 0,0
15.10.2020 09:00:00 -2,4 -3,2 2 1 E 20 0,0
15.10.2020 08:00:00 -2,6 -3,6 2 1 E 20 -
15.10.2020 07:00:00 -2,2 -3,3 2 1 SE 20 0,0
15.10.2020 06:00:00 -1,8 -2,9 2 1 NE 20 0,0
15.10.2020 05:00:00 -1,3 -2,4 4 2 E 20 -
15.10.2020 04:00:00 -0,6 -1,7 2 1 ESE 20 0,0
15.10.2020 03:00:00 0,4 -0,9 2 1 ESE 20 0,0
15.10.2020 02:00:00 1,4 -0,2 4 2 SE 20 -
15.10.2020 01:00:00 2,4 0,3 2 1 ESE 20 0,0
15.10.2020 00:00:00 3,9 1,1 0 0 N 20 0,0
14.10.2020 23:00:00 6,5 1,2 5 3 NNW 20 -
14.10.2020 22:00:00 7,3 1,6 11 6 WNW 20 0,2
14.10.2020 21:00:00 9,0 0,7 5 3 WNW 20 0,0
14.10.2020 20:00:00 9,5 1,4 8 4 W 20 -
14.10.2020 19:00:00 9,9 1,3 11 6 W 20 0,0
14.10.2020 18:00:00 10,0 1,9 15 8 W 20 0,0
14.10.2020 17:00:00 12,3 -0,3 13 7 NW 19 -
14.10.2020 16:00:00 12,2 0,6 9 5 NW 20 0,0

tt = temperature
td = dewpoint
ff = wind speed
dd = wind direction
vv = visibility
rr = precipitation

Next stations